Lake Arrowhead, California
Current Conditions -  °F | °C
As of 8:49 PM on Thursday 18 Dec 2014 (Local Time) from KSBD Reporting Station
Scattered Clouds Scattered Clouds  
Wind Chill: 43°   Ceiling: Unl
Heat Index: 46°   Visibility: 10mi
Dew Point: 41°   Wind: 7mph
Humidity: 81%   Direction: 110°ESE
Pressure: 30.22"   Gusts: NA
Location:  34.26°N, 117.21°W
Report Text: KSBD 190449Z 11006KT 10SM SCT040 08/05 A3022
Loading
Personal Weather Stations






























Interactive Weather Map New forecast layout! Learn more

10-Day Weather Forecast

Advertisements
Track Severe Weather on mobile